Dzhubga, Russia
Current Conditions -  °F | °C
As of 4:00 AM on Sunday 23 Nov 2014 (Local Time) from URKK Reporting Station
Clear Clear  
Wind Chill: 19°   Ceiling: Unl
Heat Index: 28°   Visibility: 6mi
Dew Point: 21°   Wind: 11mph
Humidity: 74%   Direction: 50°NE
Pressure: 30.18"   Gusts: 18mph
Location:  44.32°N, 38.7°E
Report Text: URKK 230100Z 05005G08MPS CAVOK M02/M06 Q1022 NOSIG RMK QFE763SC070
Loading
Personal Weather Stations






























Interactive Weather Map New forecast layout! Learn more

10-Day Weather Forecast

Advertisements
Track Severe Weather on mobile